Time;durP1;ratioP1;P1;durP2;ratioP2;P2;SDS_P1;SDS_P2;PMS_P1;PMS_P2;Temp;Humidity;BMP_temperature;BMP_pressure;BME280_temperature;BME280_humidity;BME280_pressure;Samples;Min_cycle;Max_cycle;Signal;HPM_P1;HPM_P2
2022/06/06 00:00:52;;;;;;;;;6.75;6.50;;;;;18.08;63.33;101439.19;5035175;28;45813;-83
2022/06/06 00:03:19;;;;;;;;;2.00;2.00;;;;;18.01;63.40;101435.78;5036485;28;45496;-84
2022/06/06 00:05:49;;;;;;;;;5.25;5.25;;;;;17.97;63.40;101431.44;5037221;28;46914;-82
2022/06/06 00:08:27;;;;;;;;;6.00;6.00;;;;;17.95;63.46;101435.06;5029429;28;45551;-83
2022/06/06 00:17:45;;;;;;;;;6.00;4.25;;;;;17.84;63.73;101441.50;5047536;28;45650;-85
2022/06/06 00:20:10;;;;;;;;;6.25;6.25;;;;;17.78;64.40;101441.63;5055848;28;45359;-81
2022/06/06 00:22:36;;;;;;;;;3.25;3.25;;;;;17.74;63.89;101436.38;5028771;28;45471;-80
2022/06/06 00:25:04;;;;;;;;;6.00;5.75;;;;;17.71;64.07;101436.47;5039896;28;45581;-80
2022/06/06 00:27:30;;;;;;;;;7.25;7.25;;;;;17.68;64.09;101441.84;5030864;28;46531;-80
2022/06/06 00:29:56;;;;;;;;;6.25;5.75;;;;;17.63;64.34;101431.31;5032097;28;45323;-80
2022/06/06 00:35:06;;;;;;;;;5.00;5.00;;;;;17.56;64.65;101441.22;5025921;28;45494;-80
2022/06/06 00:37:36;;;;;;;;;8.25;5.00;;;;;17.54;64.44;101431.50;5028359;28;45328;-80
2022/06/06 00:40:02;;;;;;;;;6.75;5.25;;;;;17.52;64.80;101426.22;5032677;28;45390;-81
2022/06/06 00:42:34;;;;;;;;;6.25;6.25;;;;;17.55;64.87;101419.94;5031912;28;45264;-80
2022/06/06 00:45:22;;;;;;;;;8.00;5.75;;;;;17.56;64.75;101427.91;5025870;28;45321;-81
2022/06/06 00:48:47;;;;;;;;;7.00;7.00;;;;;17.54;64.91;101416.41;5037761;28;47600;-81
2022/06/06 00:51:15;;;;;;;;;6.75;6.00;;;;;17.56;64.96;101421.69;5074147;28;45549;-81
2022/06/06 00:53:41;;;;;;;;;6.50;6.50;;;;;17.55;65.08;101419.94;5057683;28;45386;-81
2022/06/06 00:56:21;;;;;;;;;11.00;9.00;;;;;17.54;65.39;101411.09;5041514;28;45272;-80
2022/06/06 00:58:50;;;;;;;;;6.50;6.25;;;;;17.52;65.71;101407.56;5031855;28;46156;-80
2022/06/06 01:01:15;;;;;;;;;7.75;7.00;;;;;17.49;65.76;101417.41;5033070;28;45319;-80
2022/06/06 01:03:41;;;;;;;;;8.75;8.00;;;;;17.47;66.00;101408.59;5032527;28;45314;-80
2022/06/06 01:06:13;;;;;;;;;7.50;7.50;;;;;17.41;65.96;101413.13;5026052;28;45260;-81
2022/06/06 01:08:40;;;;;;;;;8.50;7.75;;;;;17.41;66.27;101413.13;5025906;28;45601;-80
2022/06/06 01:11:05;;;;;;;;;7.00;6.25;;;;;17.41;66.10;101399.81;5030883;28;45479;-80
2022/06/06 01:13:36;;;;;;;;;8.25;8.25;;;;;17.40;66.38;101394.50;5028975;28;45315;-80
2022/06/06 01:16:33;;;;;;;;;8.50;7.75;;;;;17.39;66.31;101400.75;5027325;28;45437;-80
2022/06/06 01:19:31;;;;;;;;;8.50;8.50;;;;;17.34;66.27;101395.53;5031650;28;47920;-80
2022/06/06 01:22:22;;;;;;;;;10.00;10.00;;;;;17.34;66.48;101403.50;5031134;28;46291;-80
2022/06/06 01:25:20;;;;;;;;;7.50;7.50;;;;;17.34;66.53;101400.84;5029731;28;45467;-80
2022/06/06 01:27:51;;;;;;;;;13.25;12.25;;;;;17.33;66.58;101393.78;5034906;28;45889;-80
2022/06/06 01:30:25;;;;;;;;;10.25;10.00;;;;;17.34;66.54;101403.50;5033867;28;46979;-80
2022/06/06 01:32:57;;;;;;;;;10.00;9.00;;;;;17.30;66.66;101398.31;5030947;28;45545;-80
2022/06/06 01:35:30;;;;;;;;;14.00;10.00;;;;;17.28;66.62;101400.13;5030044;28;45376;-80
2022/06/06 01:37:55;;;;;;;;;9.25;8.75;;;;;17.27;66.67;101395.69;5031249;28;45476;-80
2022/06/06 01:40:23;;;;;;;;;6.25;6.25;;;;;17.29;66.93;101399.19;5028718;28;45349;-80
2022/06/06 01:42:54;;;;;;;;;11.00;9.50;;;;;17.30;66.76;101411.63;5037838;28;45315;-80
2022/06/06 01:45:45;;;;;;;;;12.25;11.50;;;;;17.29;67.12;101407.19;5030748;28;45466;-80
2022/06/06 01:48:19;;;;;;;;;12.50;10.50;;;;;17.27;67.32;101411.66;5035420;28;45449;-80
2022/06/06 01:50:47;;;;;;;;;10.25;10.25;;;;;17.24;67.06;101401.97;5022085;28;46686;-80
2022/06/06 01:53:16;;;;;;;;;9.25;8.00;;;;;17.22;67.42;101392.28;5021979;28;45499;-80
2022/06/06 01:55:44;;;;;;;;;12.25;9.00;;;;;17.23;67.21;101402.00;5034574;28;45423;-80
2022/06/06 01:58:33;;;;;;;;;12.25;11.00;;;;;17.25;66.66;101409.03;5033453;28;45295;-80
2022/06/06 02:00:59;;;;;;;;;9.50;9.00;;;;;17.22;67.04;101411.78;5020570;28;48370;-80
2022/06/06 02:03:25;;;;;;;;;10.00;10.00;;;;;17.22;67.31;101411.78;5022133;28;45511;-80
2022/06/06 02:05:53;;;;;;;;;10.25;10.25;;;;;17.23;67.29;101404.66;5020643;28;45431;-81
2022/06/06 02:08:19;;;;;;;;;9.50;9.50;;;;;17.23;67.30;101397.53;5022129;28;45563;-80
2022/06/06 02:10:44;;;;;;;;;8.25;7.25;;;;;17.17;67.15;101387.91;5020428;28;47195;-80
2022/06/06 02:13:10;;;;;;;;;11.25;11.00;;;;;17.11;67.33;101392.50;5021936;28;45348;-80
2022/06/06 02:15:36;;;;;;;;;13.00;11.25;;;;;17.07;67.17;101382.81;5020256;28;45554;-80
2022/06/06 02:18:02;;;;;;;;;7.75;7.75;;;;;17.00;67.18;101384.72;5021800;28;45475;-81
2022/06/06 02:20:31;;;;;;;;;9.50;9.50;;;;;16.94;67.34;101391.03;5021290;28;46042;-80
2022/06/06 02:22:58;;;;;;;;;9.50;9.00;;;;;16.87;67.22;101380.56;5027409;28;45181;-80
2022/06/06 02:25:24;;;;;;;;;13.00;13.00;;;;;16.85;67.31;101385.03;5032792;28;45177;-80
2022/06/06 02:27:50;;;;;;;;;11.75;11.75;;;;;16.82;67.49;101398.38;5020510;28;45817;-80
2022/06/06 02:30:27;;;;;;;;;11.50;10.75;;;;;16.76;67.47;101394.03;5033093;28;46977;-80
2022/06/06 02:32:53;;;;;;;;;20.00;16.25;;;;;16.72;67.70;101393.19;5034140;28;45445;-80
2022/06/06 02:35:22;;;;;;;;;19.25;17.25;;;;;16.73;67.72;101391.41;5041558;28;45359;-80
2022/06/06 02:37:48;;;;;;;;;21.75;19.50;;;;;16.67;67.55;101384.41;5040015;28;45461;-80
2022/06/06 02:40:16;;;;;;;;;28.00;23.25;;;;;16.70;67.56;101399.44;5021501;28;45328;-80
2022/06/06 02:42:42;;;;;;;;;20.75;20.75;;;;;16.63;67.46;101393.38;5033572;28;45437;-80
2022/06/06 02:45:27;;;;;;;;;25.50;22.75;;;;;16.62;67.48;101402.22;5028671;28;45461;-80
2022/06/06 02:47:55;;;;;;;;;27.50;24.75;;;;;16.59;67.26;101412.94;5039433;28;45358;-80
2022/06/06 02:50:25;;;;;;;;;25.25;25.00;;;;;16.53;67.30;101408.59;5031889;28;46228;-80
2022/06/06 02:52:51;;;;;;;;;16.50;16.00;;;;;16.49;67.13;101398.94;5033616;28;45252;-80
2022/06/06 02:55:21;;;;;;;;;14.00;12.75;;;;;16.45;67.11;101396.34;5030570;28;45418;-80
2022/06/06 02:57:51;;;;;;;;;13.75;12.75;;;;;16.43;66.98;101391.06;5041287;28;45215;-80
2022/06/06 03:00:20;;;;;;;;;3.00;1.50;;;;;16.38;67.16;101384.06;5027958;28;47278;-80
2022/06/06 03:02:46;;;;;;;;;9.75;9.00;;;;;16.36;66.88;101383.22;5035189;28;45303;-80
2022/06/06 03:05:12;;;;;;;;;11.25;10.00;;;;;16.37;67.10;101382.31;5033368;28;45294;-80
2022/06/06 03:07:40;;;;;;;;;8.50;8.50;;;;;16.36;66.70;101384.13;5027727;28;45282;-80
2022/06/06 03:10:06;;;;;;;;;8.75;7.25;;;;;16.36;66.88;101384.13;5036468;28;48115;-80
2022/06/06 03:12:58;;;;;;;;;10.00;7.00;;;;;16.36;66.59;101383.22;5038895;28;45432;-80
2022/06/06 03:15:37;;;;;;;;;6.25;6.25;;;;;16.36;66.56;101392.09;5035245;28;45527;-80
2022/06/06 03:21:37;;;;;;;;;8.50;8.50;;;;;16.32;66.74;101393.91;5032446;28;45328;-79
2022/06/06 03:24:31;;;;;;;;;7.00;6.00;;;;;16.30;66.80;101393.06;5036599;28;45418;-79
2022/06/06 03:27:08;;;;;;;;;7.00;5.25;;;;;16.30;66.96;101393.06;5034417;28;45621;-79
2022/06/06 03:30:05;;;;;;;;;7.00;7.00;;;;;16.28;66.99;101396.66;5033710;28;45384;-79
2022/06/06 03:32:33;;;;;;;;;9.50;8.75;;;;;16.26;66.90;101399.31;5030647;28;47694;-79
2022/06/06 03:35:08;;;;;;;;;14.75;14.50;;;;;16.23;66.58;101396.72;5026726;28;45275;-79
2022/06/06 03:37:58;;;;;;;;;9.25;7.75;;;;;16.20;66.98;101401.19;5028142;28;45229;-79
2022/06/06 03:40:52;;;;;;;;;8.75;6.75;;;;;16.18;66.71;101397.72;5019413;28;45635;-79
2022/06/06 03:43:36;;;;;;;;;7.00;7.00;;;;;16.13;66.95;101404.88;5022867;28;46620;-79
2022/06/06 03:46:58;;;;;;;;;6.50;6.50;;;;;16.10;66.68;101408.44;5021596;28;45405;-79
2022/06/06 03:49:52;;;;;;;;;7.00;7.00;;;;;16.09;67.00;101415.56;5041248;28;45372;-79
2022/06/06 03:52:44;;;;;;;;;9.75;8.75;;;;;16.05;66.78;101408.50;5031675;28;46064;-79
2022/06/06 03:55:15;;;;;;;;;10.00;8.25;;;;;16.05;66.93;101407.66;5030219;28;46381;-79
2022/06/06 03:57:45;;;;;;;;;6.75;4.25;;;;;16.06;67.06;101406.72;5026661;28;45385;-79
2022/06/06 04:00:12;;;;;;;;;7.50;5.75;;;;;16.05;67.15;101407.66;5035494;28;45391;-79
2022/06/06 04:02:42;;;;;;;;;6.00;6.00;;;;;16.05;67.08;101411.16;5035282;28;45540;-79
2022/06/06 04:05:15;;;;;;;;;7.75;6.00;;;;;16.08;67.02;101407.59;5020272;28;45513;-79
2022/06/06 04:07:40;;;;;;;;;4.50;4.50;;;;;16.09;66.89;101415.56;5033542;28;45285;-79
2022/06/06 04:10:08;;;;;;;;;8.50;8.00;;;;;16.09;67.30;101417.31;5033485;28;45489;-79
2022/06/06 04:13:05;;;;;;;;;8.00;6.50;;;;;16.07;66.77;101416.47;5026389;28;45660;-79
2022/06/06 04:15:43;;;;;;;;;12.25;10.25;;;;;16.10;67.05;101427.91;5035536;28;45409;-79
2022/06/06 04:18:26;;;;;;;;;5.75;5.75;;;;;16.11;67.27;101426.13;5026068;28;45232;-79
2022/06/06 04:21:10;;;;;;;;;8.00;7.00;;;;;16.12;66.76;101422.59;5023902;28;45407;-79
2022/06/06 04:24:00;;;;;;;;;9.00;8.75;;;;;16.12;67.06;101429.66;5027783;28;45708;-79
2022/06/06 04:26:32;;;;;;;;;4.00;4.00;;;;;16.07;66.80;101427.09;5038464;28;45453;-79
2022/06/06 04:29:29;;;;;;;;;7.75;6.00;;;;;16.09;67.18;101433.25;5028572;28;45229;-79
2022/06/06 04:31:55;;;;;;;;;4.75;4.75;;;;;16.09;66.80;101427.94;5036356;28;45312;-79
2022/06/06 04:34:49;;;;;;;;;8.25;7.25;;;;;16.07;67.05;101424.44;5026157;28;45172;-79
2022/06/06 04:37:28;;;;;;;;;7.67;6.00;;;;;16.05;66.81;101418.28;5025805;28;48112;-79
2022/06/06 04:40:19;;;;;;;;;6.25;6.00;;;;;16.05;66.66;101415.63;5024086;28;45788;-80
2022/06/06 04:43:00;;;;;;;;;5.75;5.75;;;;;16.01;66.80;101417.44;5026582;28;45403;-79
2022/06/06 04:45:38;;;;;;;;;4.25;4.25;;;;;15.98;66.50;101422.78;5026671;28;45523;-79
2022/06/06 04:48:05;;;;;;;;;7.00;5.00;;;;;15.97;66.81;101414.84;5034354;28;47847;-79
2022/06/06 04:50:31;;;;;;;;;5.00;5.00;;;;;15.95;66.62;101425.50;5042646;28;45664;-79
2022/06/06 04:53:03;;;;;;;;;5.25;5.00;;;;;15.94;66.32;101417.56;5031717;28;45437;-79
2022/06/06 04:55:36;;;;;;;;;4.00;4.00;;;;;15.89;66.20;101414.97;5032353;28;45228;-79
2022/06/06 04:58:04;;;;;;;;;4.75;4.75;;;;;15.91;66.17;101425.59;5034719;28;47134;-78
2022/06/06 05:00:35;;;;;;;;;5.25;4.25;;;;;15.88;66.39;101419.41;5019617;28;45247;-79
2022/06/06 05:03:00;;;;;;;;;3.75;3.75;;;;;15.92;66.20;101419.34;5035152;28;45663;-79
2022/06/06 05:05:37;;;;;;;;;4.25;4.00;;;;;15.90;66.13;101426.47;5018930;28;45588;-79
2022/06/06 05:08:39;;;;;;;;;3.00;3.00;;;;;15.87;66.26;101427.38;5034700;28;47444;-79
2022/06/06 05:11:04;;;;;;;;;3.00;3.00;;;;;15.91;66.36;101429.09;5027176;28;45426;-80
2022/06/06 05:13:47;;;;;;;;;3.00;3.00;;;;;15.91;66.02;101430.88;5038856;28;45425;-79
2022/06/06 05:16:19;;;;;;;;;4.00;2.75;;;;;15.90;66.11;101422.03;5032036;28;45328;-79
2022/06/06 05:18:58;;;;;;;;;2.50;2.50;;;;;15.92;65.68;101428.19;5034496;28;46320;-77
2022/06/06 05:21:40;;;;;;;;;2.00;2.00;;;;;15.89;65.77;101430.91;5035222;28;45307;-78
2022/06/06 05:24:20;;;;;;;;;3.00;3.00;;;;;15.90;66.02;101437.09;5038956;28;45499;-77
2022/06/06 05:27:23;;;;;;;;;5.00;4.00;;;;;15.88;66.05;101434.47;5039192;28;45254;-78
2022/06/06 05:30:13;;;;;;;;;3.00;3.00;;;;;15.86;65.78;101439.78;5036173;28;46488;-78
2022/06/06 05:33:03;;;;;;;;;2.50;2.50;;;;;15.81;65.86;101430.13;5035241;28;45287;-77
2022/06/06 05:35:53;;;;;;;;;4.00;3.00;;;;;15.79;65.82;101430.16;5021417;28;45559;-77
2022/06/06 05:38:37;;;;;;;;;2.00;2.00;;;;;15.83;65.37;101433.66;5034729;28;45251;-77
2022/06/06 05:41:11;;;;;;;;;1.00;1.00;;;;;15.80;65.62;101431.03;5035416;28;46693;-78
2022/06/06 05:43:58;;;;;;;;;13.25;11.50;;;;;15.80;65.51;101437.22;5033226;28;45280;-77
2022/06/06 05:46:32;;;;;;;;;4.00;3.00;;;;;15.80;65.44;101426.59;5039225;28;45503;-78
2022/06/06 05:49:09;;;;;;;;;2.25;2.25;;;;;15.82;65.05;101432.78;5042018;28;45350;-78
2022/06/06 05:51:55;;;;;;;;;3.00;1.33;;;;;15.83;65.39;101431.88;5037376;28;48340;-79
2022/06/06 05:54:39;;;;;;;;;2.67;2.00;;;;;15.88;65.20;101439.78;5024735;28;45410;-79
2022/06/06 05:57:17;;;;;;;;;2.00;2.00;;;;;15.90;65.41;101434.44;5030350;28;45269;-79
2022/06/06 06:00:00;;;;;;;;;2.00;2.00;;;;;15.91;65.15;101436.19;5028986;28;45281;-78
2022/06/06 06:02:38;;;;;;;;;1.00;1.00;;;;;15.90;65.16;101440.59;5037238;28;47145;-78
2022/06/06 06:05:15;;;;;;;;;4.00;3.00;;;;;15.85;65.23;101434.47;5033456;28;45327;-79
2022/06/06 06:07:59;;;;;;;;;2.67;2.67;;;;;15.84;65.35;101449.53;5028565;28;45357;-79
2022/06/06 06:10:39;;;;;;;;;2.00;2.00;;;;;15.83;65.28;101447.81;5028630;28;45348;-79
2022/06/06 06:13:20;;;;;;;;;3.00;2.00;;;;;15.84;65.24;101452.19;5039801;28;46120;-79
2022/06/06 06:15:50;;;;;;;;;1.00;1.00;;;;;15.86;65.40;101457.50;5027413;28;45286;-79
2022/06/06 06:18:30;;;;;;;;;2.00;1.00;;;;;15.90;65.59;101455.66;5034010;28;45307;-78
2022/06/06 06:21:12;;;;;;;;;3.00;3.00;;;;;15.91;65.57;101462.75;5029424;28;45482;-78
2022/06/06 06:23:42;;;;;;;;;2.00;2.00;;;;;15.94;65.35;101460.94;5035762;28;45629;-78
2022/06/06 06:26:09;;;;;;;;;1.00;1.00;;;;;15.93;65.61;101453.88;5037229;28;45253;-79
2022/06/06 06:28:36;;;;;;;;;2.00;2.00;;;;;15.97;65.42;101460.00;5034613;28;45204;-79
2022/06/06 06:31:39;;;;;;;;;2.00;2.00;;;;;16.04;65.52;101462.56;5033746;28;45309;-78
2022/06/06 06:34:34;;;;;;;;;4.00;3.00;;;;;16.08;65.19;101468.69;5030687;28;46786;-78
2022/06/06 06:37:38;;;;;;;;;3.00;2.50;;;;;16.10;65.36;101474.88;5029842;28;45307;-78
2022/06/06 06:40:09;;;;;;;;;2.75;2.75;;;;;16.12;65.34;101470.41;5028471;28;45231;-79
2022/06/06 06:43:02;;;;;;;;;4.00;3.00;;;;;16.12;65.25;101470.41;5027991;28;45431;-81
2022/06/06 06:45:42;;;;;;;;;11.25;10.50;;;;;16.17;65.13;101472.97;5028532;28;47147;-87
2022/06/06 06:48:14;;;;;;;;;3.00;3.00;;;;;16.17;65.01;101472.97;5033207;28;45529;-78
2022/06/06 06:51:00;;;;;;;;;3.00;3.00;;;;;16.18;65.19;101483.59;5020161;28;45473;-78
2022/06/06 06:53:48;;;;;;;;;5.00;4.00;;;;;16.26;65.36;101486.13;5029567;28;45247;-77
2022/06/06 06:56:36;;;;;;;;;2.00;2.00;;;;;16.32;65.25;101483.38;5027485;28;46128;-77
2022/06/06 06:59:33;;;;;;;;;3.25;2.75;;;;;16.38;65.04;101474.44;5036135;28;45466;-78
2022/06/06 07:11:00;;;;;;;;;2.67;0.67;;;;;16.65;64.16;101474.00;5034156;28;45458;-77
2022/06/06 07:13:32;;;;;;;;;1.00;1.00;;;;;16.71;64.17;101473.00;5034184;28;45431;-78
2022/06/06 07:15:57;;;;;;;;;1.00;1.00;;;;;16.74;63.77;101479.13;5033027;28;45165;-78
2022/06/06 07:18:30;;;;;;;;;3.00;2.00;;;;;16.78;63.20;101474.66;5026038;28;45463;-78
2022/06/06 07:20:58;;;;;;;;;3.00;3.00;;;;;16.82;63.58;101472.84;5029428;28;45367;-78
2022/06/06 07:23:29;;;;;;;;;1.00;1.00;;;;;16.88;63.35;101472.72;5034125;28;45430;-78
2022/06/06 07:25:56;;;;;;;;;2.33;2.33;;;;;16.94;63.40;101472.59;5037225;28;45800;-78
2022/06/06 07:28:24;;;;;;;;;1.33;1.33;;;;;17.00;63.28;101471.63;5035100;28;45370;-78
2022/06/06 07:31:12;;;;;;;;;2.00;2.00;;;;;17.07;63.03;101481.25;5028049;28;45308;-79
2022/06/06 07:33:50;;;;;;;;;1.00;1.00;;;;;17.10;62.89;101476.72;5026849;28;45566;-78
2022/06/06 07:36:47;;;;;;;;;1.00;1.00;;;;;17.16;62.65;101465.09;5037137;28;45376;-78
2022/06/06 07:39:43;;;;;;;;;1.67;1.67;;;;;17.25;62.26;101467.59;5023189;28;45732;-78
2022/06/06 07:42:28;;;;;;;;;2.00;2.00;;;;;17.32;62.09;101471.00;5034116;28;45702;-77
2022/06/06 07:45:12;;;;;;;;;1.00;1.00;;;;;17.38;61.18;101471.75;5025787;28;45576;-77
2022/06/06 07:48:00;;;;;;;;;1.67;1.00;;;;;17.41;60.71;101463.72;5036759;28;45966;-80
2022/06/06 07:50:32;;;;;;;;;1.00;1.00;;;;;17.42;60.50;101476.09;5033652;28;46760;-78
2022/06/06 07:53:09;;;;;;;;;1.00;1.00;;;;;17.42;60.26;101461.91;5032987;28;45359;-78
2022/06/06 07:55:43;;;;;;;;;2.00;2.00;;;;;17.49;60.73;101470.66;5036757;28;45701;-79
2022/06/06 07:58:21;;;;;;;;;1.00;1.00;;;;;17.55;60.53;101462.53;5026078;28;45301;-78
2022/06/06 08:01:03;;;;;;;;;1.33;1.33;;;;;17.61;60.79;101465.06;5026363;28;46249;-79
2022/06/06 08:03:39;;;;;;;;;2.00;2.00;;;;;17.68;60.19;101461.38;5028667;28;45383;-79
2022/06/06 08:06:19;;;;;;;;;1.00;1.00;;;;;17.75;59.89;101470.09;5034854;28;45312;-78
2022/06/06 08:09:10;;;;;;;;;0.67;0.67;;;;;17.81;59.94;101470.88;5021358;28;45434;-78
2022/06/06 08:12:01;;;;;;;;;2.00;2.00;;;;;17.90;59.42;101467.13;5035347;28;47182;-78
2022/06/06 08:14:47;;;;;;;;;1.00;1.00;;;;;18.00;59.36;101458.03;5028154;28;45237;-78
2022/06/06 08:17:25;;;;;;;;;1.00;1.00;;;;;18.11;59.43;101457.78;5026975;28;45182;-77
2022/06/06 08:20:09;;;;;;;;;1.00;1.00;;;;;18.19;59.15;101450.47;5018491;28;45435;-77
2022/06/06 08:22:36;;;;;;;;;1.33;1.33;;;;;18.30;58.67;101448.41;5027539;28;46879;-78
2022/06/06 08:25:05;;;;;;;;;2.00;2.00;;;;;18.42;58.48;101446.38;5039511;28;45469;-78
2022/06/06 08:27:32;;;;;;;;;1.33;1.33;;;;;18.58;58.63;101457.50;5028884;28;45437;-78
2022/06/06 08:29:59;;;;;;;;;1.33;0.00;;;;;18.73;57.80;101451.78;5031253;28;45411;-78
2022/06/06 08:32:25;;;;;;;;;3.67;2.00;;;;;18.86;56.88;101453.25;5029620;28;46443;-78
2022/06/06 08:34:51;;;;;;;;;0.33;0.33;;;;;18.97;56.84;101442.28;5034617;28;45320;-78
2022/06/06 08:37:46;;;;;;;;;0.67;0.67;;;;;19.09;56.37;101446.41;5019849;28;45456;-77
2022/06/06 08:40:33;;;;;;;;;1.67;1.67;;;;;19.18;56.39;101446.16;5027582;28;45422;-77
2022/06/06 08:43:27;;;;;;;;;1.00;1.00;;;;;19.27;54.68;101434.31;5021726;28;45516;-78
2022/06/06 08:46:45;;;;;;;;;1.00;1.00;;;;;19.34;54.55;101435.91;5031216;28;45392;-77
2022/06/06 08:53:00;;;;;;;;;1.33;1.33;;;;;19.53;53.41;101433.56;5036250;28;45293;-78
2022/06/06 08:55:52;;;;;;;;;2.00;2.00;;;;;19.59;52.85;101430.69;5034680;28;45675;-79
2022/06/06 08:58:23;;;;;;;;;1.00;1.00;;;;;19.58;52.76;101440.53;5022063;28;45267;-79
2022/06/06 09:01:13;;;;;;;;;1.33;0.67;;;;;19.60;52.83;101429.81;5035975;28;45338;-83
2022/06/06 09:03:59;;;;;;;;;1.00;1.00;;;;;19.67;52.56;101430.50;5036024;28;45284;-79
2022/06/06 09:06:48;;;;;;;;;0.33;0.00;;;;;19.74;52.43;101440.97;5035042;28;46394;-80
2022/06/06 09:09:55;;;;;;;;;3.00;3.00;;;;;19.85;52.23;101435.28;5033074;28;45440;-79
2022/06/06 09:12:44;;;;;;;;;1.00;1.00;;;;;19.91;51.33;101434.22;5038721;28;45511;-79
2022/06/06 09:15:31;;;;;;;;;0.67;0.67;;;;;19.96;51.59;101451.00;5038801;28;45414;-80
2022/06/06 09:18:12;;;;;;;;;0.67;0.67;;;;;20.02;50.65;101442.75;5030455;28;47234;-81
2022/06/06 09:20:50;;;;;;;;;1.00;1.00;;;;;20.10;50.02;101446.09;5030127;28;45785;-81
2022/06/06 09:23:36;;;;;;;;;1.00;1.00;;;;;20.17;49.73;101436.94;5033000;28;45365;-79
2022/06/06 09:26:21;;;;;;;;;2.00;1.00;;;;;20.23;49.54;101442.09;5031184;28;45533;-81
2022/06/06 09:29:08;;;;;;;;;0.00;0.00;;;;;20.31;48.88;101438.28;5022816;28;46147;-79
2022/06/06 09:31:42;;;;;;;;;1.67;1.00;;;;;20.37;48.38;101435.41;5034231;28;45561;-79
2022/06/06 09:34:11;;;;;;;;;1.00;0.67;;;;;20.44;48.28;101429.78;5036003;28;45427;-86
2022/06/06 09:37:30;;;;;;;;;;;;;;;;;;;;;
2022/06/06 09:40:19;;;;;;;;;1.33;1.33;;;;;20.83;48.06;101431.19;5039712;28;73866;-81
2022/06/06 09:43:08;;;;;;;;;0.00;0.00;;;;;21.01;47.25;101438.56;5028234;28;45406;-83
2022/06/06 09:45:36;;;;;;;;;0.00;0.00;;;;;21.07;46.78;101427.63;5037420;28;45296;-83
2022/06/06 09:48:20;;;;;;;;;1.00;1.00;;;;;21.10;47.12;101427.50;5051322;28;45431;-87
2022/06/06 09:51:15;;;;;;;;;0.00;0.00;;;;;21.16;46.20;101418.38;5029084;28;45636;-77
2022/06/06 10:00:48;;;;;;;;;;;;;;;;;;;;;
2022/06/06 10:03:37;;;;;;;;;0.00;0.00;;;;;21.27;45.37;101426.00;5026220;28;46062;-82
2022/06/06 10:06:43;;;;;;;;;;;;;;;;;;;;;
2022/06/06 10:13:00;;;;;;;;;0.00;0.00;;;;;21.28;44.72;101425.97;5025850;28;45383;-84
2022/06/06 10:15:59;;;;;;;;;0.00;0.00;;;;;21.30;44.39;101420.53;5038621;28;46901;-82
2022/06/06 10:19:24;;;;;;;;;;;;;;;;;;;;;
2022/06/06 10:21:56;;;;;;;;;1.67;1.00;;;;;21.34;44.35;101416.81;5036251;28;67943;-81
2022/06/06 10:24:46;;;;;;;;;;;;;;;;;;;;;
2022/06/06 10:27:41;;;;;;;;;0.00;0.00;;;;;21.45;44.00;101429.84;5019377;28;75065;-83
2022/06/06 10:30:39;;;;;;;;;0.00;0.00;;;;;21.43;44.02;101439.72;5034162;28;45556;-81
2022/06/06 10:33:34;;;;;;;;;0.00;0.00;;;;;21.32;43.79;101429.38;5036991;28;45538;-89
2022/06/06 10:36:30;;;;;;;;;0.67;0.00;;;;;21.21;43.66;101432.47;5034951;28;45326;-88
2022/06/06 10:39:16;;;;;;;;;0.00;0.00;;;;;21.19;44.03;101437.00;5031885;28;45434;-79
2022/06/06 10:42:03;;;;;;;;;1.00;1.00;;;;;21.33;44.45;101432.03;5030603;28;45410;-80
2022/06/06 10:44:58;;;;;;;;;1.00;0.00;;;;;21.45;44.01;101429.84;5020750;28;45474;-82
2022/06/06 10:48:18;;;;;;;;;0.00;0.00;;;;;21.51;43.83;101430.47;5039021;28;45542;-82
2022/06/06 10:54:23;;;;;;;;;;;;;;;;;;;;;
2022/06/06 11:00:22;;;;;;;;;0.00;0.00;;;;;22.16;42.86;101411.81;5035217;28;45472;-83
2022/06/06 11:03:28;;;;;;;;;1.00;1.00;;;;;22.26;42.63;101406.97;5033542;28;45549;-81
2022/06/06 11:06:31;;;;;;;;;0.00;0.00;;;;;22.23;42.60;101411.53;5029912;28;45905;-82
2022/06/06 11:20:42;;;;;;;;;;;;;;;;;;;;;
2022/06/06 11:27:09;;;;;;;;;0.67;0.67;;;;;22.53;41.50;101407.63;4997143;28;45352;-86
2022/06/06 11:50:04;;;;;;;;;0.00;0.00;;;;;22.59;41.53;101418.09;5782037;22;67710;-87
2022/06/06 11:53:00;;;;;;;;;0.00;0.00;;;;;22.64;41.06;101422.34;5040500;28;45416;-82
2022/06/06 11:55:43;;;;;;;;;0.00;0.00;;;;;22.72;41.17;101407.69;5058381;28;45321;-82
2022/06/06 11:58:26;;;;;;;;;1.00;1.00;;;;;22.91;41.03;101400.59;5049524;28;45498;-81
2022/06/06 12:01:31;;;;;;;;;0.00;0.00;;;;;23.19;40.23;101415.47;5054892;28;45528;-80
2022/06/06 12:04:16;;;;;;;;;0.00;0.00;;;;;23.31;38.90;101401.50;5035990;28;45593;-82
2022/06/06 12:07:16;;;;;;;;;0.00;0.00;;;;;23.28;39.00;101410.56;5037377;28;47060;-82
2022/06/06 12:10:03;;;;;;;;;0.00;0.00;;;;;23.29;38.94;101403.38;5039366;28;45908;-81
2022/06/06 12:12:43;;;;;;;;;0.33;0.33;;;;;23.23;38.29;101393.78;5053018;28;45478;-82
2022/06/06 12:15:34;;;;;;;;;0.00;0.00;;;;;23.22;38.68;101385.78;5057069;28;45466;-80
2022/06/06 12:18:22;;;;;;;;;0.00;0.00;;;;;23.26;38.45;101380.19;5035834;28;48341;-79
2022/06/06 12:21:02;;;;;;;;;1.00;1.00;;;;;23.33;38.76;101387.03;5057558;28;45371;-80
2022/06/06 12:23:52;;;;;;;;;0.33;0.00;;;;;23.46;39.17;101390.00;5056729;28;45637;-79
2022/06/06 12:27:01;;;;;;;;;0.00;0.00;;;;;23.62;38.53;101383.91;5056484;28;45352;-81
2022/06/06 12:29:44;;;;;;;;;0.00;0.00;;;;;23.69;38.50;101380.84;5018815;28;45532;-79
2022/06/06 12:32:31;;;;;;;;;0.00;0.00;;;;;23.76;38.76;101385.03;5031423;28;45311;-80
2022/06/06 12:35:22;;;;;;;;;0.00;0.00;;;;;23.81;37.75;101378.53;5051440;28;45426;-81
2022/06/06 12:38:06;;;;;;;;;0.00;0.00;;;;;23.87;38.02;101375.53;5058460;28;45433;-81
2022/06/06 12:40:49;;;;;;;;;0.00;0.00;;;;;23.98;37.99;101375.91;5048785;28;45380;-82
2022/06/06 12:43:46;;;;;;;;;0.00;0.00;;;;;24.16;37.59;101366.91;5055077;28;45708;-81
2022/06/06 12:46:17;;;;;;;;;0.33;0.33;;;;;24.41;37.26;101366.50;5057275;28;46696;-82
2022/06/06 12:48:45;;;;;;;;;0.00;0.00;;;;;24.70;36.95;101368.66;5039727;28;45574;-82
2022/06/06 12:51:32;;;;;;;;;0.00;0.00;;;;;24.94;35.89;101370.06;5057670;28;45303;-82
2022/06/06 12:57:34;;;;;;;;;0.00;0.00;;;;;24.93;34.91;101367.44;4957195;28;45462;-81
2022/06/06 13:00:05;;;;;;;;;3.33;0.00;;;;;24.84;34.73;101376.88;5039670;28;45500;-82
2022/06/06 13:02:50;;;;;;;;;0.00;0.00;;;;;24.76;35.13;101369.22;5059651;28;48229;-81
2022/06/06 13:05:21;;;;;;;;;0.00;0.00;;;;;24.79;34.91;101369.03;5041952;28;45618;-80
2022/06/06 13:07:55;;;;;;;;;0.33;0.33;;;;;24.76;34.91;101371.03;5044071;28;45282;-81
2022/06/06 13:10:42;;;;;;;;;0.00;0.00;;;;;24.70;35.38;101363.25;5062264;28;45525;-84
2022/06/06 13:13:45;;;;;;;;;1.00;0.00;;;;;24.83;35.60;101362.56;5043092;28;47441;-82
2022/06/06 13:16:29;;;;;;;;;0.00;0.00;;;;;24.98;35.37;101352.75;5029188;28;46201;-81
2022/06/06 13:19:10;;;;;;;;;0.00;0.00;;;;;25.02;35.00;101353.44;5057190;28;45269;-81
2022/06/06 13:21:55;;;;;;;;;0.00;0.00;;;;;25.02;35.21;101351.66;5059695;28;45628;-81
2022/06/06 13:24:33;;;;;;;;;0.00;0.00;;;;;25.11;35.16;101355.66;5053966;28;45458;-84
2022/06/06 13:27:27;;;;;;;;;2.33;0.00;;;;;25.30;34.72;101333.97;5039494;28;45223;-84
2022/06/06 13:29:52;;;;;;;;;1.00;0.00;;;;;25.58;34.93;101343.19;5054054;28;45500;-82
2022/06/06 13:32:38;;;;;;;;;0.00;0.00;;;;;25.71;33.67;101336.13;5057920;28;45376;-81
2022/06/06 13:35:19;;;;;;;;;1.67;0.67;;;;;25.69;33.59;101338.06;5055053;28;47326;-81
2022/06/06 13:38:07;;;;;;;;;1.00;0.00;;;;;25.58;33.54;101340.50;5060681;28;45299;-81
2022/06/06 13:40:43;;;;;;;;;1.00;0.00;;;;;25.50;34.11;101344.53;5057939;28;45443;-84
2022/06/06 13:43:22;;;;;;;;;1.00;1.00;;;;;25.45;33.31;101341.22;5029693;28;45728;-82
2022/06/06 13:46:07;;;;;;;;;0.00;0.00;;;;;25.46;33.15;101337.53;5042883;28;47401;-82
2022/06/06 13:48:38;;;;;;;;;0.00;0.00;;;;;25.49;33.16;101340.06;5062189;28;45451;-81
2022/06/06 13:51:20;;;;;;;;;0.67;0.00;;;;;25.52;32.67;101336.31;5058450;28;45458;-78
2022/06/06 13:54:05;;;;;;;;;0.00;0.00;;;;;25.56;33.31;101346.00;5045246;28;45471;-78